Time;durP1;ratioP1;P1;durP2;ratioP2;P2;SDS_P1;SDS_P2;PMS_P1;PMS_P2;Temp;Humidity;BMP_temperature;BMP_pressure;BME280_temperature;BME280_humidity;BME280_pressure;Samples;Min_cycle;Max_cycle;Signal;HPM_P1;HPM_P2
2021/12/09 00:02:14;;;;;;;11.18;3.35;;;5.70;69.80;;;;;;5118970;28;20023;-62
2021/12/09 00:04:41;;;;;;;7.85;3.00;;;5.70;69.80;;;;;;5119053;28;20454;-60
2021/12/09 00:07:07;;;;;;;7.80;2.65;;;5.70;69.80;;;;;;5119156;28;20482;-61
2021/12/09 00:09:34;;;;;;;10.50;2.30;;;5.70;69.90;;;;;;5119011;28;20023;-62
2021/12/09 00:11:59;;;;;;;9.43;2.53;;;5.70;69.80;;;;;;5118574;28;20083;-62
2021/12/09 00:14:28;;;;;;;13.38;2.47;;;5.70;69.90;;;;;;5118983;28;20022;-60
2021/12/09 00:16:57;;;;;;;11.02;2.42;;;5.80;70.00;;;;;;5118800;28;20386;-60
2021/12/09 00:19:24;;;;;;;12.63;2.45;;;5.80;70.00;;;;;;5118921;28;20415;-61
2021/12/09 00:21:50;;;;;;;8.10;2.63;;;5.80;69.90;;;;;;5118813;28;20030;-62
2021/12/09 00:24:17;;;;;;;11.88;2.42;;;5.90;69.90;;;;;;5118805;28;20092;-62
2021/12/09 00:26:46;;;;;;;7.18;1.90;;;5.90;69.90;;;;;;5118752;28;20535;-61
2021/12/09 00:29:13;;;;;;;9.65;2.58;;;5.90;69.80;;;;;;5118732;28;20031;-62
2021/12/09 00:31:39;;;;;;;10.80;2.38;;;5.90;69.80;;;;;;5118580;28;20030;-62
2021/12/09 00:34:05;;;;;;;11.10;2.55;;;5.90;69.70;;;;;;5118494;28;20381;-62
2021/12/09 00:36:38;;;;;;;11.73;2.95;;;5.90;70.20;;;;;;5118590;28;20027;-60
2021/12/09 00:39:06;;;;;;;9.30;2.17;;;5.90;69.70;;;;;;5118583;28;20039;-60
2021/12/09 00:41:32;;;;;;;5.85;2.10;;;5.90;69.70;;;;;;5118644;28;20394;-62
2021/12/09 00:43:57;;;;;;;7.63;2.08;;;5.90;69.70;;;;;;5118675;28;20704;-61
2021/12/09 00:46:23;;;;;;;6.95;2.00;;;5.90;69.70;;;;;;5117963;28;20055;-62
2021/12/09 00:48:49;;;;;;;7.18;2.40;;;5.90;69.70;;;;;;5118682;28;20024;-62
2021/12/09 00:51:15;;;;;;;9.77;2.40;;;5.80;69.70;;;;;;5118072;28;20557;-62
2021/12/09 00:53:41;;;;;;;13.27;3.17;;;5.90;69.80;;;;;;5118567;28;20108;-62
2021/12/09 00:56:09;;;;;;;9.23;2.03;;;5.80;69.80;;;;;;5118068;28;20028;-62
2021/12/09 00:58:36;;;;;;;10.40;2.55;;;5.80;69.90;;;;;;5118292;27;20028;-62
2021/12/09 01:01:04;;;;;;;12.70;2.70;;;5.80;69.80;;;;;;5118025;28;20032;-61
2021/12/09 01:03:30;;;;;;;11.52;2.63;;;5.90;69.90;;;;;;5118050;28;20387;-62
2021/12/09 01:05:56;;;;;;;10.55;2.38;;;5.90;69.90;;;;;;5118027;28;20024;-62
2021/12/09 01:08:22;;;;;;;14.15;2.92;;;5.90;69.90;;;;;;5118295;28;20028;-62
2021/12/09 01:10:48;;;;;;;10.80;3.42;;;5.90;69.80;;;;;;5117334;28;20024;-60
2021/12/09 01:13:14;;;;;;;9.07;2.13;;;5.90;69.90;;;;;;5118053;28;20028;-62
2021/12/09 01:15:40;;;;;;;8.35;2.20;;;5.90;69.80;;;;;;5117898;28;20088;-62
2021/12/09 01:18:06;;;;;;;10.13;2.90;;;5.90;70.30;;;;;;5117998;28;20019;-62
2021/12/09 01:20:32;;;;;;;8.60;1.95;;;5.90;69.80;;;;;;5118107;28;20103;-62
2021/12/09 01:22:58;;;;;;;9.15;2.33;;;5.90;69.80;;;;;;5117879;28;20053;-61
2021/12/09 01:25:26;;;;;;;9.88;2.40;;;5.90;69.80;;;;;;5117790;28;20046;-61
2021/12/09 01:27:55;;;;;;;11.05;2.80;;;5.90;69.70;;;;;;5117867;28;20031;-60
2021/12/09 01:30:22;;;;;;;10.50;2.30;;;5.90;69.80;;;;;;5116304;28;20056;-60
2021/12/09 01:32:53;;;;;;;10.52;2.30;;;6.00;69.80;;;;;;5117810;28;20028;-61
2021/12/09 01:35:32;;;;;;;11.20;2.17;;;6.00;69.80;;;;;;5117694;28;20024;-60
2021/12/09 01:38:01;;;;;;;7.38;2.00;;;6.00;69.70;;;;;;5117836;28;20012;-60
2021/12/09 01:40:29;;;;;;;10.63;2.22;;;6.00;69.70;;;;;;5117656;28;20497;-60
2021/12/09 01:42:56;;;;;;;9.55;1.95;;;6.10;69.80;;;;;;5117537;28;20024;-61
2021/12/09 01:45:24;;;;;;;7.38;1.90;;;6.00;69.70;;;;;;5117342;28;20031;-61
2021/12/09 01:47:50;;;;;;;8.88;1.77;;;6.10;69.70;;;;;;5117559;28;20501;-61
2021/12/09 01:50:16;;;;;;;6.72;1.70;;;6.00;69.70;;;;;;5117637;28;20024;-61
2021/12/09 01:52:43;;;;;;;9.15;1.83;;;6.00;69.70;;;;;;5117404;28;20039;-61
2021/12/09 01:55:10;;;;;;;10.07;1.90;;;6.00;69.70;;;;;;5117483;28;20020;-61
2021/12/09 01:57:36;;;;;;;10.52;1.92;;;6.00;69.70;;;;;;5119418;28;20023;-61
2021/12/09 02:00:13;;;;;;;6.43;1.60;;;6.00;69.70;;;;;;5121573;28;20098;-61
2021/12/09 02:02:41;;;;;;;7.30;1.70;;;5.90;69.70;;;;;;5121767;28;20020;-61
2021/12/09 02:05:09;;;;;;;12.20;1.75;;;5.90;69.70;;;;;;5121556;28;20454;-62
2021/12/09 02:07:35;;;;;;;5.88;1.70;;;5.90;69.70;;;;;;5121550;28;20016;-61
2021/12/09 02:10:03;;;;;;;7.95;1.70;;;5.90;70.20;;;;;;5121103;28;20483;-61
2021/12/09 02:12:29;;;;;;;5.38;1.50;;;5.90;69.80;;;;;;5120978;28;20119;-61
2021/12/09 02:14:58;;;;;;;8.07;1.58;;;5.90;69.70;;;;;;5121154;27;20518;-60
2021/12/09 02:17:27;;;;;;;9.07;1.63;;;5.90;69.80;;;;;;5121337;28;20462;-61
2021/12/09 02:19:55;;;;;;;7.18;1.50;;;5.80;69.70;;;;;;5121024;28;20024;-60
2021/12/09 02:22:21;;;;;;;7.35;1.60;;;5.80;69.70;;;;;;5121196;28;20066;-60
2021/12/09 02:24:47;;;;;;;6.97;1.83;;;5.80;69.70;;;;;;5120898;28;20496;-61
2021/12/09 02:27:13;;;;;;;7.30;1.45;;;5.80;69.70;;;;;;5120914;28;20039;-61
2021/12/09 02:29:41;;;;;;;14.07;2.10;;;5.70;69.70;;;;;;5121036;28;20081;-61
2021/12/09 02:32:07;;;;;;;4.95;1.27;;;5.70;69.80;;;;;;5120927;28;20478;-61
2021/12/09 02:34:34;;;;;;;2.92;1.05;;;5.70;69.70;;;;;;5120819;28;20501;-60
2021/12/09 02:37:00;;;;;;;7.22;1.80;;;5.60;69.60;;;;;;5120876;28;20423;-62
2021/12/09 02:39:26;;;;;;;4.25;1.20;;;5.60;69.70;;;;;;5120818;28;20024;-60
2021/12/09 02:41:52;;;;;;;4.45;1.55;;;5.60;69.70;;;;;;5120723;28;20072;-60
2021/12/09 02:44:19;;;;;;;6.00;1.63;;;5.50;69.60;;;;;;5120556;28;20019;-60
2021/12/09 02:46:48;;;;;;;9.38;1.45;;;5.50;69.50;;;;;;5120692;28;20534;-60
2021/12/09 02:49:16;;;;;;;7.20;1.85;;;5.50;69.60;;;;;;5120628;28;20030;-60
2021/12/09 02:51:43;;;;;;;6.05;1.50;;;5.40;69.60;;;;;;5120550;28;20058;-60
2021/12/09 02:54:11;;;;;;;4.72;1.40;;;5.40;69.70;;;;;;5120694;27;20024;-60
2021/12/09 02:56:38;;;;;;;5.35;1.20;;;5.40;69.70;;;;;;5120696;28;20023;-62
2021/12/09 02:59:05;;;;;;;7.43;1.42;;;5.30;69.70;;;;;;5120296;28;20055;-60
2021/12/09 03:01:38;;;;;;;4.20;1.10;;;5.30;69.80;;;;;;5120375;28;20391;-62
2021/12/09 03:04:05;;;;;;;8.15;2.03;;;5.30;69.80;;;;;;5120422;28;20016;-60
2021/12/09 03:06:37;;;;;;;5.07;1.35;;;5.30;69.90;;;;;;5119991;28;20035;-60
2021/12/09 03:09:08;;;;;;;5.20;1.42;;;5.30;69.90;;;;;;5119959;28;20027;-60
2021/12/09 03:11:35;;;;;;;3.92;1.20;;;5.30;70.00;;;;;;5119713;28;20043;-60
2021/12/09 03:14:02;;;;;;;3.85;1.27;;;5.30;70.10;;;;;;5120123;28;20493;-61
2021/12/09 03:16:29;;;;;;;6.85;1.73;;;5.30;70.10;;;;;;5120096;28;20024;-60
2021/12/09 03:19:04;;;;;;;6.88;1.58;;;5.30;70.20;;;;;;5120037;28;21096;-60
2021/12/09 03:21:33;;;;;;;8.23;1.70;;;5.40;70.50;;;;;;5119816;28;20566;-60
2021/12/09 03:24:00;;;;;;;6.40;1.70;;;5.40;70.40;;;;;;5119700;28;20027;-60
2021/12/09 03:26:31;;;;;;;8.27;1.80;;;5.40;70.40;;;;;;5119661;28;20052;-60
2021/12/09 03:29:00;;;;;;;6.00;1.63;;;5.50;70.50;;;;;;5119631;28;20409;-60
2021/12/09 03:31:26;;;;;;;9.68;2.60;;;5.60;70.60;;;;;;5119714;28;20020;-62
2021/12/09 03:33:52;;;;;;;9.57;1.73;;;5.60;70.50;;;;;;5119535;28;20091;-60
2021/12/09 03:36:18;;;;;;;9.00;1.85;;;5.70;70.60;;;;;;5119459;28;20055;-60
2021/12/09 03:38:43;;;;;;;10.02;2.03;;;5.70;70.60;;;;;;5119407;28;20058;-60
2021/12/09 03:41:09;;;;;;;9.50;3.72;;;5.70;71.10;;;;;;5119654;28;20034;-61
2021/12/09 03:43:36;;;;;;;9.07;1.83;;;5.80;70.60;;;;;;5119321;28;20495;-60
2021/12/09 03:46:02;;;;;;;8.27;1.80;;;5.80;70.60;;;;;;5119630;28;20073;-61
2021/12/09 03:48:29;;;;;;;6.88;1.73;;;5.90;70.70;;;;;;5119172;28;20031;-60
2021/12/09 03:50:55;;;;;;;5.90;1.60;;;5.80;70.70;;;;;;5119330;28;20098;-60
2021/12/09 03:53:22;;;;;;;6.45;1.60;;;5.90;70.60;;;;;;5119098;28;20055;-62
2021/12/09 03:55:48;;;;;;;8.13;1.98;;;5.90;70.60;;;;;;5118969;28;20054;-60
2021/12/09 03:58:15;;;;;;;6.38;1.40;;;5.90;70.70;;;;;;5119054;28;20095;-60
2021/12/09 04:00:42;;;;;;;8.55;2.10;;;5.90;70.80;;;;;;5118805;28;20027;-60
2021/12/09 04:03:08;;;;;;;10.15;2.28;;;6.00;70.90;;;;;;5118916;28;20055;-60
2021/12/09 04:05:35;;;;;;;8.90;1.98;;;6.00;70.80;;;;;;5118905;28;20027;-61
2021/12/09 04:08:00;;;;;;;7.68;1.70;;;6.00;70.90;;;;;;5118865;28;20110;-60
2021/12/09 04:10:27;;;;;;;9.20;1.92;;;6.00;70.80;;;;;;5119155;28;20047;-61
2021/12/09 04:12:52;;;;;;;5.78;1.45;;;6.00;70.80;;;;;;5118360;28;20044;-61
2021/12/09 04:15:18;;;;;;;4.45;1.40;;;6.00;70.90;;;;;;5119120;28;20027;-61
2021/12/09 04:17:44;;;;;;;6.60;1.77;;;6.10;71.10;;;;;;5118875;28;20107;-61
2021/12/09 04:20:11;;;;;;;9.02;1.75;;;6.10;71.10;;;;;;5118378;28;20047;-61
2021/12/09 04:22:36;;;;;;;6.28;1.80;;;6.10;71.20;;;;;;5118791;28;20470;-60
2021/12/09 04:25:05;;;;;;;5.95;1.90;;;6.10;71.10;;;;;;5118815;28;20020;-60
2021/12/09 04:27:32;;;;;;;9.07;2.28;;;6.10;71.10;;;;;;5118384;28;20118;-60
2021/12/09 04:29:57;;;;;;;6.80;1.80;;;6.20;71.10;;;;;;5118804;28;20046;-61
2021/12/09 04:32:23;;;;;;;7.65;2.10;;;6.20;71.10;;;;;;5118851;28;20035;-61
2021/12/09 04:34:53;;;;;;;7.70;1.73;;;6.20;71.20;;;;;;5118415;28;20087;-61
2021/12/09 04:37:19;;;;;;;11.57;2.22;;;6.20;71.10;;;;;;5118328;28;20022;-61
2021/12/09 04:39:45;;;;;;;7.07;1.90;;;6.30;71.30;;;;;;5118341;27;20033;-61
2021/12/09 04:42:11;;;;;;;9.43;2.10;;;6.30;71.00;;;;;;5118182;28;20051;-61
2021/12/09 04:44:37;;;;;;;8.05;1.80;;;6.30;71.10;;;;;;5118255;28;20137;-61
2021/12/09 04:47:03;;;;;;;6.57;1.77;;;6.30;71.20;;;;;;5118216;28;20402;-62
2021/12/09 04:49:29;;;;;;;6.68;1.77;;;6.30;71.20;;;;;;5118268;28;20121;-60
2021/12/09 04:51:57;;;;;;;10.02;2.53;;;6.30;71.20;;;;;;5118241;28;20028;-61
2021/12/09 04:54:23;;;;;;;5.20;1.75;;;6.30;71.20;;;;;;5117824;28;20027;-61
2021/12/09 04:56:49;;;;;;;8.20;3.90;;;6.30;71.30;;;;;;5118082;28;20023;-62
2021/12/09 04:59:16;;;;;;;10.10;5.53;;;6.30;71.30;;;;;;5118200;28;20448;-60
2021/12/09 05:01:48;;;;;;;8.93;3.75;;;6.30;71.50;;;;;;5118045;28;20454;-60
2021/12/09 05:04:14;;;;;;;7.85;1.90;;;6.40;71.60;;;;;;5118118;28;20027;-61
2021/12/09 05:06:40;;;;;;;8.48;2.05;;;6.40;71.60;;;;;;5118006;28;20050;-61
2021/12/09 05:09:10;;;;;;;5.72;1.80;;;6.40;71.70;;;;;;5118158;28;20419;-61
2021/12/09 05:14:03;;;;;;;10.02;2.67;;;6.40;71.50;;;;;;5118083;28;20026;-61
2021/12/09 05:16:29;;;;;;;9.57;3.40;;;6.40;71.30;;;;;;5118086;28;20051;-60
2021/12/09 05:18:58;;;;;;;9.20;4.00;;;6.40;71.50;;;;;;5117702;28;20051;-61
2021/12/09 05:21:28;;;;;;;19.90;10.90;;;6.40;71.70;;;;;;5117848;28;20020;-60
2021/12/09 05:23:56;;;;;;;22.52;12.82;;;6.40;71.70;;;;;;5117673;28;20024;-60
2021/12/09 05:26:26;;;;;;;23.63;16.08;;;6.50;71.60;;;;;;5117615;28;20036;-61
2021/12/09 05:28:56;;;;;;;21.50;11.95;;;6.40;71.90;;;;;;5117745;28;20020;-61
2021/12/09 05:34:07;;;;;;;13.23;6.43;;;6.50;71.70;;;;;;5122297;28;20026;-61
2021/12/09 05:36:33;;;;;;;11.82;5.20;;;6.50;71.80;;;;;;5121801;28;20107;-61
2021/12/09 05:38:59;;;;;;;9.35;4.20;;;6.50;71.90;;;;;;5121797;28;20016;-62
2021/12/09 05:41:25;;;;;;;10.55;4.20;;;6.50;72.10;;;;;;5121746;28;20504;-61
2021/12/09 05:43:51;;;;;;;5.90;2.90;;;6.50;72.00;;;;;;5122028;28;20050;-61
2021/12/09 05:46:17;;;;;;;8.38;3.25;;;6.50;72.00;;;;;;5122215;28;20020;-61
2021/12/09 05:48:43;;;;;;;8.27;3.22;;;6.50;72.10;;;;;;5121599;28;20535;-61
2021/12/09 05:51:09;;;;;;;7.25;3.17;;;6.50;72.10;;;;;;5121469;27;20024;-61
2021/12/09 05:53:34;;;;;;;8.75;3.17;;;6.50;72.10;;;;;;5121535;28;20470;-60
2021/12/09 05:56:00;;;;;;;12.27;3.10;;;6.60;72.10;;;;;;5121870;28;20030;-61
2021/12/09 05:58:26;;;;;;;11.05;3.22;;;6.60;72.00;;;;;;5121427;28;20022;-61
2021/12/09 06:00:53;;;;;;;6.20;2.50;;;6.60;72.10;;;;;;5121579;28;20028;-61
2021/12/09 06:03:21;;;;;;;7.97;2.92;;;6.60;72.20;;;;;;5121361;28;20770;-61
2021/12/09 06:05:48;;;;;;;5.93;2.67;;;6.60;72.00;;;;;;5121224;28;20030;-61
2021/12/09 06:08:14;;;;;;;7.20;2.70;;;6.60;72.20;;;;;;5121471;28;20032;-61
2021/12/09 06:10:40;;;;;;;7.00;2.80;;;6.70;72.30;;;;;;5121112;28;20458;-62
2021/12/09 06:13:06;;;;;;;10.55;3.80;;;6.60;72.20;;;;;;5121309;28;20051;-61
2021/12/09 06:15:32;;;;;;;7.45;3.22;;;6.70;72.20;;;;;;5121323;28;20027;-61
2021/12/09 06:17:58;;;;;;;6.82;3.15;;;6.70;72.30;;;;;;5121260;28;20024;-61
2021/12/09 06:20:27;;;;;;;5.32;2.30;;;6.70;72.20;;;;;;5121231;28;20081;-61
2021/12/09 06:22:53;;;;;;;6.40;2.35;;;6.70;72.20;;;;;;5120917;28;20028;-61
2021/12/09 06:25:20;;;;;;;7.50;2.58;;;6.80;72.20;;;;;;5120914;28;20147;-61
2021/12/09 06:27:48;;;;;;;6.50;2.67;;;6.80;72.20;;;;;;5121239;28;20103;-61
2021/12/09 06:30:15;;;;;;;8.90;2.80;;;6.80;72.20;;;;;;5120910;28;20482;-61
2021/12/09 06:32:42;;;;;;;7.55;2.80;;;6.80;72.30;;;;;;5121309;28;20020;-61
2021/12/09 06:35:08;;;;;;;15.55;2.78;;;6.80;72.30;;;;;;5120693;27;20020;-60
2021/12/09 06:37:38;;;;;;;7.85;2.50;;;6.80;72.30;;;;;;5120903;28;20023;-61
2021/12/09 06:40:09;;;;;;;8.55;3.20;;;6.80;72.20;;;;;;5121076;27;20019;-61
2021/12/09 06:42:36;;;;;;;8.52;3.80;;;6.80;72.20;;;;;;5120417;28;20120;-61
2021/12/09 06:45:03;;;;;;;8.10;4.45;;;6.90;72.20;;;;;;5120541;28;20566;-61
2021/12/09 06:47:29;;;;;;;12.75;4.75;;;6.90;72.20;;;;;;5120527;28;20086;-61
2021/12/09 06:49:57;;;;;;;8.73;4.40;;;6.90;72.30;;;;;;5120660;28;20490;-61
2021/12/09 06:52:22;;;;;;;10.63;4.72;;;6.90;72.50;;;;;;5120455;28;20047;-60
2021/12/09 06:54:48;;;;;;;10.18;4.40;;;6.90;72.50;;;;;;5120260;28;20008;-61
2021/12/09 06:57:14;;;;;;;11.93;4.65;;;6.90;72.40;;;;;;5120441;27;20030;-62
2021/12/09 06:59:40;;;;;;;8.57;4.47;;;6.90;72.40;;;;;;5120516;27;20091;-61
2021/12/09 07:02:07;;;;;;;9.95;4.65;;;6.90;72.50;;;;;;5120159;28;20478;-60
2021/12/09 07:04:33;;;;;;;12.85;6.93;;;6.90;72.40;;;;;;5119859;28;20080;-60
2021/12/09 07:06:59;;;;;;;15.25;6.18;;;7.00;72.40;;;;;;5120119;28;20107;-60
2021/12/09 07:09:28;;;;;;;9.40;4.57;;;7.00;72.50;;;;;;5120368;28;20076;-60
2021/12/09 07:11:55;;;;;;;12.10;4.97;;;7.00;72.40;;;;;;5119653;28;20044;-60
2021/12/09 07:14:21;;;;;;;11.25;4.55;;;7.00;72.40;;;;;;5120123;28;20538;-60
2021/12/09 07:16:46;;;;;;;15.07;6.13;;;7.00;72.40;;;;;;5118405;28;20028;-60
2021/12/09 07:19:12;;;;;;;12.85;5.22;;;7.00;72.50;;;;;;5119812;28;20034;-60
2021/12/09 07:21:39;;;;;;;13.52;5.05;;;7.10;72.60;;;;;;5120012;28;20027;-60
2021/12/09 07:24:05;;;;;;;17.02;8.43;;;7.10;72.50;;;;;;5119726;28;20027;-61
2021/12/09 07:26:32;;;;;;;15.52;8.10;;;7.10;72.50;;;;;;5119450;28;20034;-61
2021/12/09 07:28:58;;;;;;;13.13;5.72;;;7.10;72.60;;;;;;5119875;28;20486;-60
2021/12/09 07:31:24;;;;;;;10.73;4.97;;;7.10;72.50;;;;;;5119881;28;20071;-62
2021/12/09 07:33:52;;;;;;;8.95;4.60;;;7.10;72.60;;;;;;5119574;28;20437;-60
2021/12/09 07:36:18;;;;;;;9.15;4.07;;;7.10;72.70;;;;;;5119727;27;20028;-60
2021/12/09 07:38:46;;;;;;;8.25;3.15;;;7.10;72.60;;;;;;5119644;27;20518;-60
2021/12/09 07:41:13;;;;;;;12.07;4.90;;;7.10;72.60;;;;;;5119443;28;20535;-60
2021/12/09 07:43:39;;;;;;;13.23;5.43;;;7.10;72.60;;;;;;5119370;28;20031;-60
2021/12/09 07:46:05;;;;;;;13.35;5.25;;;7.10;72.50;;;;;;5119594;28;20158;-60
2021/12/09 07:48:31;;;;;;;8.32;3.72;;;7.10;72.60;;;;;;5119562;28;20216;-60
2021/12/09 07:50:57;;;;;;;11.48;4.25;;;7.20;72.70;;;;;;5119823;28;20027;-60
2021/12/09 07:53:23;;;;;;;10.73;5.25;;;7.20;72.60;;;;;;5119146;28;20031;-60
2021/12/09 07:55:51;;;;;;;16.15;7.05;;;7.20;72.60;;;;;;5118420;28;20418;-60
2021/12/09 07:58:17;;;;;;;11.38;4.80;;;7.10;72.60;;;;;;5119251;28;20024;-61
2021/12/09 08:00:43;;;;;;;11.07;3.92;;;7.10;72.60;;;;;;5119407;28;20763;-60
2021/12/09 08:03:09;;;;;;;10.60;3.47;;;7.20;72.60;;;;;;5119048;28;20371;-61
2021/12/09 08:05:37;;;;;;;11.77;4.78;;;7.20;72.70;;;;;;5118821;28;20035;-61
2021/12/09 08:08:05;;;;;;;9.57;4.72;;;7.20;72.70;;;;;;5118989;28;20020;-61
2021/12/09 08:10:31;;;;;;;11.68;4.30;;;7.20;72.80;;;;;;5118903;28;20023;-60
2021/12/09 08:12:58;;;;;;;9.38;3.58;;;7.20;72.70;;;;;;5118501;28;20047;-60
2021/12/09 08:15:27;;;;;;;8.13;4.00;;;7.20;72.80;;;;;;5118923;28;20031;-60
2021/12/09 08:18:02;;;;;;;10.15;3.83;;;7.20;72.90;;;;;;5118934;28;20042;-60
2021/12/09 08:20:30;;;;;;;11.40;4.35;;;7.20;72.90;;;;;;5118887;28;20030;-60
2021/12/09 08:22:56;;;;;;;12.18;4.68;;;7.20;72.90;;;;;;5118624;28;20099;-60
2021/12/09 08:25:22;;;;;;;12.98;4.43;;;7.30;72.90;;;;;;5118477;28;20411;-60
2021/12/09 08:27:49;;;;;;;10.35;4.55;;;7.30;72.80;;;;;;5118618;28;20453;-60
2021/12/09 08:30:18;;;;;;;11.73;4.55;;;7.30;72.90;;;;;;5117594;28;20030;-60
2021/12/09 08:32:44;;;;;;;11.23;5.20;;;7.30;72.90;;;;;;5118423;28;20022;-60
2021/12/09 08:35:10;;;;;;;10.55;4.28;;;7.30;73.00;;;;;;5117804;28;20448;-60
2021/12/09 08:37:37;;;;;;;12.63;4.38;;;7.40;73.00;;;;;;5118203;28;20012;-62
2021/12/09 08:40:05;;;;;;;9.93;4.20;;;7.40;72.90;;;;;;5118333;28;20032;-60
2021/12/09 08:42:31;;;;;;;10.02;3.83;;;7.40;73.00;;;;;;5118083;28;20053;-60
2021/12/09 08:44:57;;;;;;;10.85;4.50;;;7.40;72.90;;;;;;5118425;28;20103;-62
2021/12/09 08:47:23;;;;;;;14.05;5.18;;;7.40;73.00;;;;;;5118391;28;20075;-60
2021/12/09 08:49:49;;;;;;;10.35;4.53;;;7.50;73.00;;;;;;5118440;28;20084;-62
2021/12/09 08:52:15;;;;;;;12.30;4.45;;;7.50;72.90;;;;;;5117524;28;20082;-62
2021/12/09 08:54:41;;;;;;;14.25;4.47;;;7.50;72.60;;;;;;5118230;28;20031;-60
2021/12/09 08:57:07;;;;;;;10.68;4.60;;;7.50;72.70;;;;;;5118124;28;20035;-60
2021/12/09 08:59:33;;;;;;;10.30;4.68;;;7.60;72.90;;;;;;5118115;28;20024;-62
2021/12/09 09:01:59;;;;;;;9.88;4.85;;;7.60;72.60;;;;;;5118287;28;20050;-61
2021/12/09 09:04:25;;;;;;;10.73;2.90;;;7.70;72.60;;;;;;5118119;28;20028;-60
2021/12/09 09:07:00;;;;;;;11.30;3.58;;;7.70;72.40;;;;;;5117680;28;20019;-60
2021/12/09 09:09:32;;;;;;;10.35;2.85;;;7.80;72.40;;;;;;5118037;28;20020;-60
2021/12/09 09:11:59;;;;;;;10.45;3.25;;;7.80;72.40;;;;;;5117585;28;20490;-61
2021/12/09 09:14:25;;;;;;;11.70;3.78;;;7.80;72.30;;;;;;5118039;28;20356;-60
2021/12/09 09:16:50;;;;;;;12.27;3.55;;;7.90;72.30;;;;;;5118196;28;20019;-62
2021/12/09 09:19:16;;;;;;;11.55;3.53;;;7.90;72.30;;;;;;5117906;28;20019;-60
2021/12/09 09:21:43;;;;;;;11.73;3.60;;;8.00;72.30;;;;;;5117973;28;20024;-60
2021/12/09 09:24:10;;;;;;;12.73;5.10;;;8.00;72.20;;;;;;5117673;28;20027;-61
2021/12/09 09:26:37;;;;;;;18.23;11.65;;;8.00;72.30;;;;;;5118091;28;20015;-62
2021/12/09 09:29:03;;;;;;;23.05;14.63;;;8.10;72.30;;;;;;5117636;28;20031;-60
2021/12/09 09:31:31;;;;;;;23.08;12.82;;;8.10;72.40;;;;;;5117734;28;20502;-60
2021/12/09 09:34:00;;;;;;;17.23;8.40;;;8.10;72.30;;;;;;5117439;28;20028;-60
2021/12/09 09:36:26;;;;;;;15.60;7.32;;;8.20;72.30;;;;;;5117541;28;20016;-62
2021/12/09 09:38:56;;;;;;;13.38;5.63;;;8.20;72.20;;;;;;5117878;28;20104;-62
2021/12/09 09:41:26;;;;;;;12.73;5.05;;;8.30;72.20;;;;;;5117379;28;20027;-60
2021/12/09 09:43:58;;;;;;;11.00;3.38;;;8.30;72.20;;;;;;5117685;28;20073;-61
2021/12/09 09:46:30;;;;;;;8.52;3.53;;;8.30;72.20;;;;;;5117432;28;20093;-60
2021/12/09 09:48:59;;;;;;;13.45;3.75;;;8.40;72.30;;;;;;5117430;28;20077;-61
2021/12/09 09:51:27;;;;;;;14.90;4.82;;;8.40;72.20;;;;;;5117355;28;20047;-62
2021/12/09 09:53:53;;;;;;;11.38;3.88;;;8.50;72.40;;;;;;5117627;28;20070;-60
2021/12/09 09:56:22;;;;;;;10.98;3.47;;;8.50;72.40;;;;;;5117524;28;20012;-62
2021/12/09 09:58:54;;;;;;;11.60;3.40;;;8.60;72.30;;;;;;5117168;28;20042;-62
2021/12/09 10:01:21;;;;;;;10.63;3.15;;;8.60;72.40;;;;;;5117379;28;20131;-60
2021/12/09 10:03:48;;;;;;;9.98;3.15;;;8.60;72.30;;;;;;5117521;28;20066;-62
2021/12/09 10:06:19;;;;;;;5.00;2.10;;;8.70;72.30;;;;;;5117486;28;20020;-60
2021/12/09 10:08:47;;;;;;;5.55;1.95;;;8.70;72.40;;;;;;5117372;28;20588;-60
2021/12/09 10:11:13;;;;;;;11.55;2.55;;;8.80;72.30;;;;;;5117332;28;20063;-60
2021/12/09 10:13:42;;;;;;;7.75;1.80;;;8.80;72.30;;;;;;5117140;28;20106;-62
2021/12/09 10:16:21;;;;;;;6.93;1.73;;;8.80;72.20;;;;;;5117232;28;20023;-61
2021/12/09 10:18:54;;;;;;;8.23;2.00;;;8.90;72.30;;;;;;5119342;28;20542;-60
2021/12/09 10:21:24;;;;;;;10.60;2.20;;;8.90;72.40;;;;;;5121119;28;20073;-60
2021/12/09 10:23:59;;;;;;;10.70;2.53;;;9.00;72.30;;;;;;5121069;28;20482;-62
2021/12/09 10:26:27;;;;;;;9.70;2.90;;;9.00;72.60;;;;;;5120949;28;20447;-60
2021/12/09 10:29:05;;;;;;;7.70;1.77;;;9.10;72.60;;;;;;5121259;28;20027;-61
2021/12/09 10:31:39;;;;;;;7.80;1.60;;;9.10;72.50;;;;;;5120686;28;20024;-62
2021/12/09 10:37:14;;;;;;;4.85;1.23;;;9.20;72.60;;;;;;5109681;28;20026;-61
2021/12/09 10:39:42;;;;;;;2.42;1.25;;;9.20;72.50;;;;;;5120673;28;20078;-61
2021/12/09 10:42:15;;;;;;;2.33;1.13;;;9.20;72.50;;;;;;5120526;28;20027;-61
2021/12/09 10:44:43;;;;;;;4.45;1.25;;;9.30;72.50;;;;;;5120728;28;20436;-61
2021/12/09 10:47:15;;;;;;;3.10;0.90;;;9.30;73.00;;;;;;5120620;28;20087;-61
2021/12/09 10:49:51;;;;;;;2.47;0.68;;;9.30;72.80;;;;;;5120235;28;20073;-60
2021/12/09 10:52:27;;;;;;;1.73;0.52;;;9.40;72.80;;;;;;5120335;28;20060;-60
2021/12/09 10:54:54;;;;;;;1.23;0.40;;;9.40;72.90;;;;;;5120073;27;20605;-60
2021/12/09 10:57:31;;;;;;;1.45;0.25;;;9.50;73.10;;;;;;5120069;28;20024;-60
2021/12/09 11:00:12;;;;;;;2.92;0.40;;;9.50;73.10;;;;;;5120232;28;20462;-60
2021/12/09 11:03:01;;;;;;;0.40;0.40;;;9.50;73.30;;;;;;5120435;28;20485;-61
2021/12/09 11:05:28;;;;;;;1.15;0.50;;;9.60;73.10;;;;;;5120167;28;20518;-62
2021/12/09 11:07:56;;;;;;;4.15;0.77;;;9.60;73.10;;;;;;5119848;28;20020;-60
2021/12/09 11:10:24;;;;;;;2.03;0.47;;;9.70;72.90;;;;;;5119878;28;20478;-60
2021/12/09 11:12:58;;;;;;;0.98;0.40;;;9.70;73.10;;;;;;5119560;28;20071;-61
2021/12/09 11:16:05;;;;;;;1.20;0.35;;;9.70;73.40;;;;;;5119587;28;20027;-62
2021/12/09 11:18:42;;;;;;;1.55;0.25;;;9.70;72.90;;;;;;5120041;28;20431;-61
2021/12/09 11:21:19;;;;;;;2.13;0.40;;;9.80;73.10;;;;;;5119880;28;20107;-61
2021/12/09 11:23:55;;;;;;;0.38;0.20;;;9.80;73.00;;;;;;5119628;28;20026;-61
2021/12/09 11:26:45;;;;;;;0.20;0.20;;;9.80;73.40;;;;;;5119854;28;20042;-62
2021/12/09 11:29:13;;;;;;;0.20;0.20;;;9.90;73.30;;;;;;5119953;28;20076;-62
2021/12/09 11:31:45;;;;;;;0.20;0.20;;;9.90;73.40;;;;;;5119433;28;20032;-61
2021/12/09 11:34:16;;;;;;;0.20;0.20;;;9.90;73.50;;;;;;5120036;28;20100;-60
2021/12/09 11:36:54;;;;;;;0.22;0.20;;;9.90;73.80;;;;;;5119626;28;20077;-61
2021/12/09 11:39:29;;;;;;;0.30;0.30;;;10.00;73.80;;;;;;5119499;28;20477;-62
2021/12/09 11:42:04;;;;;;;0.65;0.28;;;10.00;73.80;;;;;;5119359;27;20024;-61
2021/12/09 11:44:32;;;;;;;0.20;0.20;;;10.10;73.90;;;;;;5119538;28;20095;-61
2021/12/09 11:46:58;;;;;;;0.35;0.20;;;10.10;73.70;;;;;;5118864;28;20053;-61
2021/12/09 11:49:24;;;;;;;4.70;0.63;;;10.10;73.70;;;;;;5119398;28;20374;-62
2021/12/09 11:51:50;;;;;;;0.45;0.45;;;10.20;74.10;;;;;;5119059;28;20106;-62
2021/12/09 11:54:16;;;;;;;1.13;0.40;;;10.20;73.70;;;;;;5118724;28;20070;-62
2021/12/09 11:56:57;;;;;;;0.50;0.35;;;10.20;73.90;;;;;;5119337;27;20032;-62
2021/12/09 12:11:15;;;;;;;4.22;0.80;;;10.40;73.80;;;;;;5118282;28;20035;-61
2021/12/09 12:13:54;;;;;;;8.63;1.33;;;10.50;73.90;;;;;;5118538;28;20089;-61
2021/12/09 12:19:36;;;;;;;6.32;1.10;;;10.50;74.50;;;;;;5118731;28;20022;-61
2021/12/09 12:22:45;;;;;;;3.80;0.80;;;10.50;74.10;;;;;;5118645;28;20044;-62
2021/12/09 12:31:43;;;;;;;5.70;1.40;;;10.60;73.80;;;;;;5118548;28;20061;-60
2021/12/09 12:40:04;;;;;;;9.85;1.52;;;10.70;74.10;;;;;;5117859;28;20371;-61
2021/12/09 12:43:11;;;;;;;10.38;1.83;;;10.70;74.10;;;;;;5117833;28;20027;-62
2021/12/09 12:51:14;;;;;;;7.20;1.40;;;10.90;74.10;;;;;;5118351;28;20080;-61
2021/12/09 12:53:43;;;;;;;9.25;1.15;;;10.90;74.40;;;;;;5118191;28;20046;-61
2021/12/09 12:56:13;;;;;;;11.70;1.73;;;10.90;73.80;;;;;;5117773;28;20035;-61
2021/12/09 12:59:01;;;;;;;7.20;1.08;;;10.90;74.40;;;;;;5117994;28;20030;-62
2021/12/09 13:01:27;;;;;;;5.22;1.08;;;11.00;74.40;;;;;;5117657;28;20034;-62
2021/12/09 13:03:57;;;;;;;7.43;1.10;;;11.10;74.10;;;;;;5117965;28;20110;-61
2021/12/09 13:06:46;;;;;;;6.05;1.00;;;11.00;73.90;;;;;;5116994;28;20383;-61
2021/12/09 13:12:04;;;;;;;10.82;1.70;;;11.10;73.90;;;;;;5117475;28;20047;-60
2021/12/09 13:14:34;;;;;;;10.20;2.28;;;11.10;74.20;;;;;;5117832;28;20020;-62
2021/12/09 13:17:15;;;;;;;5.70;1.40;;;11.10;73.90;;;;;;5117674;28;20030;-60
2021/12/09 13:20:04;;;;;;;3.90;1.33;;;11.10;73.90;;;;;;5117575;28;20028;-60
2021/12/09 13:22:37;;;;;;;7.90;1.50;;;11.20;74.10;;;;;;5117764;28;20390;-61
2021/12/09 13:25:26;;;;;;;2.92;1.05;;;11.20;73.90;;;;;;5117546;28;20028;-61
2021/12/09 13:39:07;;;;;;;3.40;0.50;;;11.30;74.50;;;;;;5117568;28;19928;-61
2021/12/09 13:46:58;;;;;;;5.10;0.60;;;11.40;73.90;;;;;;5117502;28;20035;-61
2021/12/09 13:50:37;;;;;;;1.77;0.80;;;11.40;73.80;;;;;;5117443;28;20062;-61
2021/12/09 13:55:11;;;;;;;4.78;1.65;;;11.30;74.00;;;;;;5121613;28;20118;-61
2021/12/09 13:57:52;;;;;;;3.95;1.50;;;11.40;74.00;;;;;;5121574;28;20030;-61
2021/12/09 14:00:27;;;;;;;17.10;11.77;;;11.40;74.10;;;;;;5121709;28;20024;-65
2021/12/09 14:02:55;;;;;;;15.85;10.73;;;11.50;75.60;;;;;;5121451;28;20385;-65
2021/12/09 14:05:22;;;;;;;5.75;2.78;;;11.60;76.00;;;;;;5121339;28;20077;-65